CheckWX is a tool to help pilots better visualize weather data.  It is not intended as a substitute for an official pre-flight weather briefing.

10:10:22 UTC

KGUC TAF
Gunnison-Crested Butte Regional Airport
Gunnison, Colorado, USA
KGUC 260533Z 2606/2706 03006KT P6SM FEW200 FM260800 VRB05KT P6SM FEW200 FM261900 25008G18KT P6SM FEW250

Jun-26@
06:00 UTC

Jun-26 @ 06:00 UTC

Jun-26@
08:00 UTC

Jun-26 @ 08:00 UTC

KGUC 260533Z 2606/2706 03006KT P6SM FEW200

Expired

Wind
  • 030° at 6 KTS
Cloud Levels
  • Few at 20,000' AGL

Jun-26@
08:00 UTC

Jun-26 @ 08:00 UTC

Jun-26@
19:00 UTC

Jun-26 @ 19:00 UTC

FM260800 VRB05KT P6SM FEW200

From

From Standard forecast or significant change

Wind
  • Variable at 5 KTS
Cloud Levels
  • Few at 20,000' AGL

Jun-26@
19:00 UTC

Jun-26 @ 19:00 UTC

Jun-27@
06:00 UTC

Jun-27 @ 06:00 UTC

FM261900 25008G18KT P6SM FEW250

From

From Standard forecast or significant change

Wind
  • 250° at 8 KTS
  • {Gusting to 18 KTS
Cloud Levels
  • Few at 25,000' AGL